createdAt,value
2016-09-10T00:00:02.682Z,52.97
2016-09-10T00:00:35.124Z,52.77
2016-09-10T00:01:08.650Z,52.97
2016-09-10T00:01:41.036Z,52.97
2016-09-10T00:02:13.361Z,52.77
2016-09-10T00:02:45.686Z,52.97
2016-09-10T00:03:17.986Z,52.58
2016-09-10T00:03:50.302Z,53.06
2016-09-10T00:04:22.623Z,52.77
2016-09-10T00:04:54.950Z,52.48
2016-09-10T00:05:27.276Z,52.77
2016-09-10T00:05:59.598Z,52.97
2016-09-10T00:06:31.906Z,52.87
2016-09-10T00:07:04.237Z,52.97
2016-09-10T00:07:36.583Z,52.87
2016-09-10T00:08:08.928Z,52.97
2016-09-10T00:08:41.260Z,52.84
2016-09-10T00:09:13.584Z,52.67
2016-09-10T00:09:45.919Z,52.97
2016-09-10T00:10:18.259Z,52.77
2016-09-10T00:10:50.593Z,52.87
2016-09-10T00:11:22.929Z,52.75
2016-09-10T00:11:55.261Z,52.77
2016-09-10T00:12:27.570Z,53.03
2016-09-10T00:12:59.894Z,52.67
2016-09-10T00:13:32.996Z,52.67
2016-09-10T00:14:05.602Z,52.75
2016-09-10T00:14:37.947Z,52.84
2016-09-10T00:15:10.278Z,52.87
2016-09-10T00:15:42.632Z,53.03
2016-09-10T00:16:15.239Z,52.94
2016-09-10T00:16:47.552Z,52.94
2016-09-10T00:17:19.880Z,52.75
2016-09-10T00:17:52.657Z,52.75
2016-09-10T00:18:24.984Z,53.03
2016-09-10T00:18:57.327Z,53.13
2016-09-10T00:19:29.842Z,52.84
2016-09-10T00:20:02.444Z,52.65
2016-09-10T00:20:35.007Z,52.94
2016-09-10T00:21:08.168Z,52.65
2016-09-10T00:21:40.494Z,52.65
2016-09-10T00:22:12.821Z,52.55
2016-09-10T00:22:45.168Z,52.65
2016-09-10T00:23:17.601Z,52.65
2016-09-10T00:23:49.957Z,52.65
2016-09-10T00:24:22.259Z,52.65
2016-09-10T00:24:54.557Z,53.13
2016-09-10T00:25:26.905Z,52.65
2016-09-10T00:25:59.266Z,53.03
2016-09-10T00:26:31.717Z,52.84
2016-09-10T00:27:04.130Z,53.13
2016-09-10T00:27:36.445Z,53.03
2016-09-10T00:28:08.945Z,53.03
2016-09-10T00:28:41.419Z,52.65
2016-09-10T00:29:13.739Z,53.13
2016-09-10T00:29:46.112Z,52.65
2016-09-10T00:30:18.430Z,53.03
2016-09-10T00:30:50.793Z,53.13
2016-09-10T00:31:23.126Z,52.65
2016-09-10T00:31:55.472Z,52.65
2016-09-10T00:32:27.789Z,52.65
2016-09-10T00:33:00.164Z,52.65
2016-09-10T00:33:32.702Z,52.65
2016-09-10T00:34:05.087Z,53.13
2016-09-10T00:34:37.432Z,53.13
2016-09-10T00:35:09.774Z,52.65
2016-09-10T00:35:42.089Z,53.03
2016-09-10T00:36:14.419Z,53.03
2016-09-10T00:36:46.737Z,52.94
2016-09-10T00:37:19.157Z,53.13
2016-09-10T00:37:51.481Z,53.03
2016-09-10T00:38:23.791Z,52.94
2016-09-10T00:38:56.129Z,52.84
2016-09-10T00:39:28.456Z,52.65
2016-09-10T00:40:00.857Z,53.03
2016-09-10T00:40:33.586Z,52.84
2016-09-10T00:41:05.894Z,52.75
2016-09-10T00:41:38.230Z,53.13
2016-09-10T00:42:10.537Z,52.75
2016-09-10T00:42:42.894Z,52.84
2016-09-10T00:43:15.282Z,52.65
2016-09-10T00:43:47.647Z,52.75
2016-09-10T00:44:19.959Z,52.65
2016-09-10T00:44:52.301Z,53.13
2016-09-10T00:45:24.724Z,52.55
2016-09-10T00:45:57.071Z,52.94
2016-09-10T00:46:29.388Z,52.55
2016-09-10T00:47:02.788Z,52.75
2016-09-10T00:47:36.743Z,52.65
2016-09-10T00:48:09.134Z,52.65
2016-09-10T00:48:41.593Z,52.84
2016-09-10T00:49:13.914Z,52.45
2016-09-10T00:49:46.273Z,52.75
2016-09-10T00:50:18.880Z,53.33
2016-09-10T00:50:51.215Z,52.84
2016-09-10T00:51:23.555Z,52.55
2016-09-10T00:51:55.886Z,53.03
2016-09-10T00:52:28.221Z,52.84
2016-09-10T00:53:00.573Z,52.84
2016-09-10T00:53:32.935Z,52.94
2016-09-10T00:54:05.329Z,52.84
2016-09-10T00:54:37.647Z,52.94
2016-09-10T00:55:10.208Z,53.03
2016-09-10T00:55:42.581Z,53.23
2016-09-10T00:56:14.916Z,52.94
2016-09-10T00:56:47.242Z,52.62
2016-09-10T00:57:19.625Z,53.13
2016-09-10T00:57:52.169Z,52.94
2016-09-10T00:58:24.507Z,52.65
2016-09-10T00:58:56.998Z,52.75
2016-09-10T00:59:29.316Z,53.03
2016-09-10T01:00:01.700Z,52.75
2016-09-10T01:00:34.921Z,53.01
2016-09-10T01:01:07.300Z,53.23
2016-09-10T01:01:39.623Z,52.75
2016-09-10T01:02:11.977Z,53.01
2016-09-10T01:02:44.321Z,52.75
2016-09-10T01:03:16.755Z,53.03
2016-09-10T01:03:49.178Z,53.23
2016-09-10T01:04:21.523Z,52.72
2016-09-10T01:04:53.855Z,53.2
2016-09-10T01:05:26.193Z,52.72
2016-09-10T01:05:58.544Z,53.2
2016-09-10T01:06:31.001Z,53.2
2016-09-10T01:07:03.370Z,52.91
2016-09-10T01:07:35.833Z,52.81
2016-09-10T01:08:08.152Z,52.81
2016-09-10T01:08:40.723Z,53.3
2016-09-10T01:09:13.031Z,52.72
2016-09-10T01:09:45.361Z,52.72
2016-09-10T01:10:17.690Z,53.39
2016-09-10T01:10:50.159Z,52.91
2016-09-10T01:11:22.545Z,52.81
2016-09-10T01:11:54.935Z,53.01
2016-09-10T01:12:27.261Z,52.91
2016-09-10T01:12:59.613Z,52.91
2016-09-10T01:13:31.930Z,52.91
2016-09-10T01:14:04.244Z,52.91
2016-09-10T01:14:36.580Z,52.91
2016-09-10T01:15:08.891Z,53.3
2016-09-10T01:15:41.231Z,52.91
2016-09-10T01:16:13.556Z,52.91
2016-09-10T01:16:45.865Z,53.3
2016-09-10T01:17:18.194Z,53.01
2016-09-10T01:17:50.536Z,52.62
2016-09-10T01:18:22.905Z,53.01
2016-09-10T01:18:55.212Z,53.3
2016-09-10T01:19:27.594Z,53.01
2016-09-10T01:19:59.912Z,53.01
2016-09-10T01:20:32.916Z,52.62
2016-09-10T01:21:05.236Z,53.01
2016-09-10T01:21:37.543Z,53.3
2016-09-10T01:22:09.856Z,52.91
2016-09-10T01:22:42.182Z,53.11
2016-09-10T01:23:14.617Z,53.39
2016-09-10T01:23:47.071Z,53.11
2016-09-10T01:24:19.392Z,53.2
2016-09-10T01:24:51.703Z,52.91
2016-09-10T01:25:24.209Z,53.3
2016-09-10T01:25:56.545Z,52.91
2016-09-10T01:26:28.868Z,53.11
2016-09-10T01:27:01.188Z,53.11
2016-09-10T01:27:33.655Z,52.91
2016-09-10T01:28:06.016Z,53.39
2016-09-10T01:28:38.367Z,52.91
2016-09-10T01:29:10.874Z,53.3
2016-09-10T01:29:43.345Z,52.91
2016-09-10T01:30:15.662Z,53.3
2016-09-10T01:30:47.973Z,52.91
2016-09-10T01:31:20.306Z,53.11
2016-09-10T01:31:52.613Z,53.3
2016-09-10T01:32:24.966Z,53.11
2016-09-10T01:32:57.292Z,53.3
2016-09-10T01:33:29.666Z,52.91
2016-09-10T01:34:02.068Z,53.2
2016-09-10T01:34:34.479Z,53.3
2016-09-10T01:35:06.846Z,53.11
2016-09-10T01:35:39.154Z,53.01
2016-09-10T01:36:11.598Z,53.2
2016-09-10T01:36:43.906Z,53.11
2016-09-10T01:37:16.246Z,53.39
2016-09-10T01:37:48.575Z,53.11
2016-09-10T01:38:20.981Z,53.2
2016-09-10T01:38:53.319Z,53.3
2016-09-10T01:39:25.638Z,53.3
2016-09-10T01:39:58.009Z,53.2
2016-09-10T01:40:30.340Z,53.11
2016-09-10T01:41:02.701Z,53.01
2016-09-10T01:41:35.031Z,53.2
2016-09-10T01:42:07.357Z,53.2
2016-09-10T01:42:39.729Z,53.01
2016-09-10T01:43:12.049Z,53.39
2016-09-10T01:43:44.403Z,53.39
2016-09-10T01:44:16.963Z,53.01
2016-09-10T01:44:49.266Z,53.2
2016-09-10T01:45:21.597Z,53.39
2016-09-10T01:45:53.956Z,53.01
2016-09-10T01:46:26.311Z,53.39
2016-09-10T01:46:58.652Z,53.2
2016-09-10T01:47:31.282Z,53.39
2016-09-10T01:48:03.749Z,53.11
2016-09-10T01:48:36.094Z,53.01
2016-09-10T01:49:08.457Z,53.01
2016-09-10T01:49:40.800Z,53.39
2016-09-10T01:50:13.109Z,53.01
2016-09-10T01:50:45.478Z,53.2
2016-09-10T01:51:17.897Z,53.2
2016-09-10T01:51:50.229Z,53.3
2016-09-10T01:52:22.613Z,53.69
2016-09-10T01:52:54.987Z,53.01
2016-09-10T01:53:27.298Z,53.2
2016-09-10T01:53:59.601Z,53.59
2016-09-10T01:54:31.977Z,53.01
2016-09-10T01:55:04.373Z,53.47
2016-09-10T01:55:36.885Z,52.98
2016-09-10T01:56:09.458Z,53.01
2016-09-10T01:56:41.803Z,52.89
2016-09-10T01:57:14.137Z,53.01
2016-09-10T01:57:46.492Z,53.08
2016-09-10T01:58:18.848Z,53.08
2016-09-10T01:58:51.154Z,53.56
2016-09-10T01:59:23.476Z,53.17
2016-09-10T01:59:55.786Z,53.59
2016-09-10T02:00:28.168Z,53.47
2016-09-10T02:01:00.576Z,53.27
2016-09-10T02:01:33.091Z,53.47
2016-09-10T02:02:05.422Z,53.69
2016-09-10T02:02:37.806Z,53.47
2016-09-10T02:03:10.293Z,52.98
2016-09-10T02:03:42.611Z,52.98
2016-09-10T02:04:14.925Z,53.17
2016-09-10T02:04:47.331Z,53.17
2016-09-10T02:05:19.698Z,53.17
2016-09-10T02:05:52.026Z,53.08
2016-09-10T02:06:24.359Z,53.47
2016-09-10T02:06:56.691Z,53.56
2016-09-10T02:07:29.050Z,53.56
2016-09-10T02:08:01.426Z,52.98
2016-09-10T02:08:33.809Z,52.98
2016-09-10T02:09:06.278Z,52.98
2016-09-10T02:09:38.681Z,53.11
2016-09-10T02:10:11.308Z,53.17
2016-09-10T02:10:43.644Z,53.37
2016-09-10T02:11:15.949Z,53.08
2016-09-10T02:11:48.313Z,52.98
2016-09-10T02:12:20.923Z,53.17
2016-09-10T02:12:53.261Z,53.08
2016-09-10T02:13:25.579Z,53.17
2016-09-10T02:13:57.904Z,53.37
2016-09-10T02:14:30.223Z,53.47
2016-09-10T02:15:03.063Z,53.47
2016-09-10T02:15:35.450Z,53.47
2016-09-10T02:16:07.770Z,53.08
2016-09-10T02:16:40.172Z,53.37
2016-09-10T02:17:12.509Z,53.17
2016-09-10T02:17:44.840Z,52.98
2016-09-10T02:18:17.177Z,52.98
2016-09-10T02:18:49.511Z,53.27
2016-09-10T02:19:21.838Z,53.17
2016-09-10T02:19:54.187Z,53.17
2016-09-10T02:20:26.531Z,53.37
2016-09-10T02:20:58.997Z,53.17
2016-09-10T02:21:31.337Z,53.17
2016-09-10T02:22:03.709Z,53.37
2016-09-10T02:22:36.106Z,53.08
2016-09-10T02:23:08.423Z,53.17
2016-09-10T02:23:40.771Z,53.17
2016-09-10T02:24:13.206Z,53.17
2016-09-10T02:24:45.540Z,53.56
2016-09-10T02:25:17.925Z,53.08
2016-09-10T02:25:51.234Z,52.98
2016-09-10T02:26:24.579Z,53.27
2016-09-10T02:26:56.918Z,53.17
2016-09-10T02:27:29.254Z,53.08
2016-09-10T02:28:01.600Z,53.17
2016-09-10T02:28:33.950Z,53.17
2016-09-10T02:29:06.701Z,53.17
2016-09-10T02:29:39.593Z,52.89
2016-09-10T02:30:11.959Z,53.17
2016-09-10T02:30:44.530Z,53.17
2016-09-10T02:31:16.859Z,53.08
2016-09-10T02:31:49.287Z,53.17
2016-09-10T02:32:21.714Z,53.08
2016-09-10T02:32:54.021Z,53.08
2016-09-10T02:33:26.351Z,53.47
2016-09-10T02:33:58.670Z,53.56
2016-09-10T02:34:31.042Z,52.79
2016-09-10T02:35:03.532Z,53.17
2016-09-10T02:35:35.867Z,53.08
2016-09-10T02:36:08.198Z,53.56
2016-09-10T02:36:40.556Z,52.79
2016-09-10T02:37:12.928Z,53.27
2016-09-10T02:37:45.271Z,53.08
2016-09-10T02:38:17.584Z,52.79
2016-09-10T02:38:49.922Z,52.79
2016-09-10T02:39:22.217Z,52.79
2016-09-10T02:39:54.525Z,53.56
2016-09-10T02:40:26.859Z,52.79
2016-09-10T02:40:59.194Z,53.08
2016-09-10T02:41:31.530Z,53.56
2016-09-10T02:42:03.871Z,52.79
2016-09-10T02:42:36.217Z,52.79
2016-09-10T02:43:08.547Z,53.08
2016-09-10T02:43:40.870Z,53.17
2016-09-10T02:44:13.168Z,53.17
2016-09-10T02:44:45.485Z,52.98
2016-09-10T02:45:17.779Z,53.27
2016-09-10T02:45:50.102Z,53.17
2016-09-10T02:46:22.423Z,53.17
2016-09-10T02:46:54.755Z,53.56
2016-09-10T02:47:27.058Z,53.47
2016-09-10T02:47:59.396Z,53.56
2016-09-10T02:48:31.708Z,53.17
2016-09-10T02:49:04.037Z,53.27
2016-09-10T02:49:36.350Z,53.17
2016-09-10T02:50:08.785Z,53.27
2016-09-10T02:50:41.125Z,53.37
2016-09-10T02:51:15.075Z,53.17
2016-09-10T02:51:49.944Z,53.37
2016-09-10T02:52:22.312Z,53.27
2016-09-10T02:52:54.693Z,53.17
2016-09-10T02:53:27.010Z,53.17
2016-09-10T02:53:59.386Z,53.27
2016-09-10T02:54:31.693Z,53.17
2016-09-10T02:55:04.034Z,53.27
2016-09-10T02:55:36.371Z,53.27
2016-09-10T02:56:08.695Z,52.98
2016-09-10T02:56:41.125Z,53.27
2016-09-10T02:57:13.471Z,53.27
2016-09-10T02:57:45.790Z,53.47
2016-09-10T02:58:18.111Z,53.27
2016-09-10T02:58:50.455Z,53.27
2016-09-10T02:59:22.807Z,53.27
2016-09-10T02:59:55.127Z,53.27
2016-09-10T03:00:27.440Z,53.27
2016-09-10T03:00:59.937Z,53.27
2016-09-10T03:01:32.273Z,53.17
2016-09-10T03:02:04.606Z,53.17
2016-09-10T03:02:36.952Z,53.47
2016-09-10T03:03:09.327Z,53.08
2016-09-10T03:03:41.693Z,53.27
2016-09-10T03:04:14.191Z,53.27
2016-09-10T03:04:46.520Z,52.98
2016-09-10T03:05:19.085Z,53.27
2016-09-10T03:05:51.437Z,53.08
2016-09-10T03:06:23.903Z,53.27
2016-09-10T03:06:56.280Z,53.37
2016-09-10T03:07:28.624Z,53.17
2016-09-10T03:08:01.017Z,53.08
2016-09-10T03:08:33.539Z,53.08
2016-09-10T03:09:06.713Z,53.17
2016-09-10T03:09:39.603Z,53.08
2016-09-10T03:10:11.953Z,53.37
2016-09-10T03:10:44.297Z,53.66
2016-09-10T03:11:16.614Z,53.17
2016-09-10T03:11:48.930Z,53.56
2016-09-10T03:12:21.233Z,53.25
2016-09-10T03:12:53.645Z,53.17
2016-09-10T03:13:26.007Z,53.15
2016-09-10T03:13:58.336Z,53.37
2016-09-10T03:14:30.641Z,53.17
2016-09-10T03:15:03.820Z,53.25
2016-09-10T03:15:36.416Z,53.17
2016-09-10T03:16:08.780Z,53.47
2016-09-10T03:16:41.119Z,53.25
2016-09-10T03:17:13.493Z,53.25
2016-09-10T03:17:45.879Z,53.25
2016-09-10T03:18:18.197Z,53.34
2016-09-10T03:18:50.640Z,53.44
2016-09-10T03:19:22.964Z,53.53
2016-09-10T03:19:55.393Z,53.47
2016-09-10T03:20:27.735Z,53.27
2016-09-10T03:21:00.148Z,53.44
2016-09-10T03:21:32.618Z,53.27
2016-09-10T03:22:05.072Z,53.27
2016-09-10T03:22:37.421Z,53.15
2016-09-10T03:23:09.886Z,53.15
2016-09-10T03:23:42.235Z,53.53
2016-09-10T03:24:14.658Z,53.47
2016-09-10T03:24:47.025Z,53.44
2016-09-10T03:25:19.358Z,53.44
2016-09-10T03:25:51.839Z,53.53
2016-09-10T03:26:24.160Z,53.15
2016-09-10T03:26:56.964Z,53.44
2016-09-10T03:27:29.324Z,53.15
2016-09-10T03:28:01.641Z,53.25
2016-09-10T03:28:33.981Z,53.63
2016-09-10T03:29:06.481Z,53.27
2016-09-10T03:29:39.002Z,53.15
2016-09-10T03:30:11.302Z,53.53
2016-09-10T03:30:43.648Z,53.53
2016-09-10T03:31:15.990Z,53.34
2016-09-10T03:31:48.290Z,53.34
2016-09-10T03:32:20.633Z,53.25
2016-09-10T03:32:52.962Z,53.25
2016-09-10T03:33:25.339Z,53.15
2016-09-10T03:33:57.660Z,53.34
2016-09-10T03:34:29.984Z,53.34
2016-09-10T03:35:02.834Z,53.44
2016-09-10T03:35:35.298Z,53.44
2016-09-10T03:36:07.741Z,53.25
2016-09-10T03:36:40.151Z,53.25
2016-09-10T03:37:12.634Z,53.25
2016-09-10T03:37:44.993Z,53.15
2016-09-10T03:38:17.319Z,53.25
2016-09-10T03:38:49.659Z,53.15
2016-09-10T03:39:21.965Z,53.34
2016-09-10T03:39:54.278Z,53.15
2016-09-10T03:40:26.618Z,53.25
2016-09-10T03:40:58.940Z,53.44
2016-09-10T03:41:31.271Z,53.63
2016-09-10T03:42:03.634Z,53.25
2016-09-10T03:42:36.150Z,53.25
2016-09-10T03:43:08.454Z,53.53
2016-09-10T03:43:40.770Z,53.44
2016-09-10T03:44:13.073Z,53.44
2016-09-10T03:44:45.423Z,53.25
2016-09-10T03:45:17.758Z,53.34
2016-09-10T03:45:50.211Z,53.25
2016-09-10T03:46:22.559Z,53.25
2016-09-10T03:46:54.864Z,53.44
2016-09-10T03:47:27.301Z,53.34
2016-09-10T03:47:59.640Z,53.83
2016-09-10T03:48:32.150Z,53.34
2016-09-10T03:49:04.999Z,53.34
2016-09-10T03:49:37.384Z,53.92
2016-09-10T03:50:09.693Z,53.25
2016-09-10T03:50:42.039Z,53.25
2016-09-10T03:51:14.370Z,53.63
2016-09-10T03:51:46.677Z,53.53
2016-09-10T03:52:19.064Z,53.34
2016-09-10T03:52:51.391Z,53.34
2016-09-10T03:53:23.728Z,53.25
2016-09-10T03:53:56.085Z,53.92
2016-09-10T03:54:28.416Z,53.34
2016-09-10T03:55:00.751Z,53.53
2016-09-10T03:55:33.939Z,53.34
2016-09-10T03:56:06.258Z,53.34
2016-09-10T03:56:38.581Z,53.25
2016-09-10T03:57:10.941Z,53.25
2016-09-10T03:57:43.292Z,53.34
2016-09-10T03:58:15.661Z,53.34
2016-09-10T03:58:47.995Z,53.44
2016-09-10T03:59:20.328Z,53.34
2016-09-10T03:59:52.785Z,53.44
2016-09-10T04:00:25.182Z,53.25
2016-09-10T04:00:57.488Z,53.83
2016-09-10T04:01:29.807Z,53.83
2016-09-10T04:02:02.609Z,53.44
2016-09-10T04:02:34.956Z,53.34
2016-09-10T04:03:07.289Z,53.73
2016-09-10T04:03:39.623Z,53.44
2016-09-10T04:04:11.934Z,53.25
2016-09-10T04:04:44.259Z,53.92
2016-09-10T04:05:16.612Z,53.92
2016-09-10T04:05:49.051Z,53.34
2016-09-10T04:06:21.385Z,53.34
2016-09-10T04:06:53.686Z,53.25
2016-09-10T04:07:26.041Z,53.44
2016-09-10T04:07:58.357Z,53.73
2016-09-10T04:08:30.661Z,53.15
2016-09-10T04:09:03.171Z,53.25
2016-09-10T04:09:35.525Z,53.34
2016-09-10T04:10:07.923Z,53.53
2016-09-10T04:10:40.281Z,53.44
2016-09-10T04:11:12.744Z,53.44
2016-09-10T04:11:45.123Z,53.44
2016-09-10T04:12:17.482Z,53.53
2016-09-10T04:12:49.822Z,53.83
2016-09-10T04:13:22.130Z,53.73
2016-09-10T04:13:54.476Z,53.44
2016-09-10T04:14:26.773Z,53.53
2016-09-10T04:14:59.097Z,53.44
2016-09-10T04:15:31.496Z,53.34
2016-09-10T04:16:03.828Z,53.44
2016-09-10T04:16:36.416Z,53.83
2016-09-10T04:17:08.713Z,53.92
2016-09-10T04:17:41.305Z,53.44
2016-09-10T04:18:13.614Z,53.83
2016-09-10T04:18:45.960Z,53.44
2016-09-10T04:19:18.280Z,53.44
2016-09-10T04:19:50.610Z,53.44
2016-09-10T04:20:22.990Z,53.44
2016-09-10T04:20:55.327Z,53.44
2016-09-10T04:21:27.655Z,53.53
2016-09-10T04:21:59.982Z,53.34
2016-09-10T04:22:32.680Z,53.44
2016-09-10T04:23:05.018Z,53.83
2016-09-10T04:23:37.370Z,53.34
2016-09-10T04:24:09.888Z,53.83
2016-09-10T04:24:42.259Z,53.44
2016-09-10T04:25:14.609Z,53.53
2016-09-10T04:25:46.957Z,53.44
2016-09-10T04:26:19.275Z,53.92
2016-09-10T04:26:51.593Z,53.83
2016-09-10T04:27:23.893Z,53.92
2016-09-10T04:27:56.231Z,53.53
2016-09-10T04:28:28.520Z,53.44
2016-09-10T04:29:01.993Z,53.34
2016-09-10T04:29:34.515Z,53.34
2016-09-10T04:30:06.940Z,53.92
2016-09-10T04:30:39.299Z,53.53
2016-09-10T04:31:12.014Z,53.44
2016-09-10T04:31:44.346Z,53.44
2016-09-10T04:32:16.724Z,53.41
2016-09-10T04:32:49.056Z,53.83
2016-09-10T04:33:21.382Z,53.51
2016-09-10T04:33:53.786Z,53.53
2016-09-10T04:34:26.099Z,53.92
2016-09-10T04:34:58.430Z,53.53
2016-09-10T04:35:30.837Z,53.51
2016-09-10T04:36:03.176Z,53.44
2016-09-10T04:36:35.503Z,53.83
2016-09-10T04:37:07.832Z,54.02
2016-09-10T04:37:40.639Z,53.83
2016-09-10T04:38:12.975Z,53.53
2016-09-10T04:38:45.298Z,53.53
2016-09-10T04:39:17.645Z,53.51
2016-09-10T04:39:49.973Z,53.53
2016-09-10T04:40:22.317Z,53.63
2016-09-10T04:40:54.632Z,53.92
2016-09-10T04:41:26.952Z,53.53
2016-09-10T04:41:59.335Z,53.53
2016-09-10T04:42:31.788Z,53.44
2016-09-10T04:43:04.173Z,53.83
2016-09-10T04:43:36.557Z,53.53
2016-09-10T04:44:08.897Z,53.44
2016-09-10T04:44:41.310Z,53.44
2016-09-10T04:45:13.635Z,53.83
2016-09-10T04:45:45.963Z,53.53
2016-09-10T04:46:18.279Z,53.61
2016-09-10T04:46:50.620Z,53.51
2016-09-10T04:47:22.951Z,53.41
2016-09-10T04:47:55.302Z,53.99
2016-09-10T04:48:27.643Z,53.61
2016-09-10T04:48:59.960Z,53.8
2016-09-10T04:49:32.366Z,53.51
2016-09-10T04:50:04.846Z,53.8
2016-09-10T04:50:37.435Z,53.8
2016-09-10T04:51:09.759Z,53.41
2016-09-10T04:51:42.080Z,53.51
2016-09-10T04:52:14.450Z,53.51
2016-09-10T04:52:46.807Z,53.63
2016-09-10T04:53:19.137Z,53.31
2016-09-10T04:53:51.451Z,53.51
2016-09-10T04:54:23.777Z,53.51
2016-09-10T04:54:56.132Z,53.51
2016-09-10T04:55:28.485Z,53.51
2016-09-10T04:56:00.875Z,53.51
2016-09-10T04:56:33.228Z,53.51
2016-09-10T04:57:05.542Z,53.51
2016-09-10T04:57:37.850Z,53.8
2016-09-10T04:58:10.287Z,53.99
2016-09-10T04:58:42.699Z,53.51
2016-09-10T04:59:15.052Z,53.51
2016-09-10T04:59:47.866Z,53.99
2016-09-10T05:00:20.464Z,53.41
2016-09-10T05:00:52.805Z,53.8
2016-09-10T05:01:25.148Z,53.41
2016-09-10T05:01:57.451Z,53.61
2016-09-10T05:02:29.790Z,53.41
2016-09-10T05:03:02.340Z,53.51
2016-09-10T05:03:34.689Z,53.51
2016-09-10T05:04:06.989Z,53.41
2016-09-10T05:04:39.345Z,53.51
2016-09-10T05:05:11.671Z,53.51
2016-09-10T05:05:44.017Z,53.99
2016-09-10T05:06:16.374Z,53.8
2016-09-10T05:06:48.755Z,53.89
2016-09-10T05:07:21.073Z,53.51
2016-09-10T05:07:53.407Z,53.7
2016-09-10T05:08:25.761Z,53.51
2016-09-10T05:08:58.110Z,53.51
2016-09-10T05:09:30.552Z,53.51
2016-09-10T05:10:03.743Z,53.41
2016-09-10T05:10:36.359Z,53.61
2016-09-10T05:11:08.688Z,53.51
2016-09-10T05:11:41.090Z,53.51
2016-09-10T05:12:13.406Z,53.51
2016-09-10T05:12:45.774Z,53.8
2016-09-10T05:13:18.147Z,53.41
2016-09-10T05:13:50.507Z,53.8
2016-09-10T05:14:22.843Z,53.41
2016-09-10T05:14:55.186Z,53.41
2016-09-10T05:15:27.647Z,53.41
2016-09-10T05:15:59.999Z,53.61
2016-09-10T05:16:32.367Z,53.99
2016-09-10T05:17:04.733Z,53.61
2016-09-10T05:17:37.799Z,53.51
2016-09-10T05:18:11.492Z,53.41
2016-09-10T05:18:43.806Z,53.41
2016-09-10T05:19:16.143Z,53.51
2016-09-10T05:19:48.517Z,53.8
2016-09-10T05:20:20.922Z,53.8
2016-09-10T05:20:53.245Z,53.99
2016-09-10T05:21:25.641Z,53.61
2016-09-10T05:21:57.978Z,53.99
2016-09-10T05:22:30.331Z,53.51
2016-09-10T05:23:02.657Z,53.51
2016-09-10T05:23:35.030Z,53.99
2016-09-10T05:24:07.335Z,54.09
2016-09-10T05:24:39.706Z,53.51
2016-09-10T05:25:12.206Z,53.51
2016-09-10T05:25:44.546Z,53.99
2016-09-10T05:26:16.890Z,53.51
2016-09-10T05:26:49.219Z,53.51
2016-09-10T05:27:21.530Z,53.51
2016-09-10T05:27:53.858Z,53.51
2016-09-10T05:28:26.233Z,53.41
2016-09-10T05:28:58.555Z,53.51
2016-09-10T05:29:30.901Z,53.41
2016-09-10T05:30:03.448Z,53.99
2016-09-10T05:30:36.003Z,53.89
2016-09-10T05:31:08.304Z,53.51
2016-09-10T05:31:40.704Z,53.41
2016-09-10T05:32:13.012Z,53.51
2016-09-10T05:32:45.337Z,53.51
2016-09-10T05:33:17.721Z,53.51
2016-09-10T05:33:50.066Z,53.41
2016-09-10T05:34:22.391Z,53.51
2016-09-10T05:34:54.820Z,53.51
2016-09-10T05:35:27.209Z,53.7
2016-09-10T05:35:59.564Z,53.51
2016-09-10T05:36:32.125Z,53.41
2016-09-10T05:37:04.473Z,53.31
2016-09-10T05:37:36.821Z,53.41
2016-09-10T05:38:09.131Z,53.8
2016-09-10T05:38:41.583Z,53.41
2016-09-10T05:39:13.919Z,53.41
2016-09-10T05:39:46.239Z,53.51
2016-09-10T05:40:18.834Z,53.41
2016-09-10T05:40:51.909Z,53.8
2016-09-10T05:41:24.223Z,53.51
2016-09-10T05:41:56.603Z,53.61
2016-09-10T05:42:28.965Z,53.41
2016-09-10T05:43:01.368Z,53.8
2016-09-10T05:43:33.791Z,53.31
2016-09-10T05:44:06.150Z,53.41
2016-09-10T05:44:38.695Z,53.89
2016-09-10T05:45:11.018Z,53.8
2016-09-10T05:45:43.342Z,53.41
2016-09-10T05:46:15.661Z,53.41
2016-09-10T05:46:48.135Z,53.31
2016-09-10T05:47:20.519Z,53.8
2016-09-10T05:47:52.834Z,53.34
2016-09-10T05:48:25.142Z,53.51
2016-09-10T05:48:57.586Z,53.41
2016-09-10T05:49:29.944Z,53.53
2016-09-10T05:50:02.642Z,53.34
2016-09-10T05:50:34.992Z,53.89
2016-09-10T05:51:07.349Z,53.8
2016-09-10T05:51:39.696Z,53.7
2016-09-10T05:52:12.241Z,53.41
2016-09-10T05:52:44.577Z,53.31
2016-09-10T05:53:16.895Z,53.92
2016-09-10T05:53:49.251Z,53.83
2016-09-10T05:54:21.565Z,53.25
2016-09-10T05:54:53.889Z,53.44
2016-09-10T05:55:26.208Z,53.25
2016-09-10T05:55:58.538Z,53.25
2016-09-10T05:56:31.039Z,53.63
2016-09-10T05:57:03.428Z,53.53
2016-09-10T05:57:35.792Z,53.83
2016-09-10T05:58:08.294Z,53.15
2016-09-10T05:58:40.630Z,53.25
2016-09-10T05:59:12.966Z,53.25
2016-09-10T05:59:45.290Z,53.44
2016-09-10T06:00:17.662Z,53.53
2016-09-10T06:00:49.990Z,53.25
2016-09-10T06:01:22.326Z,53.63
2016-09-10T06:01:54.618Z,53.25
2016-09-10T06:02:27.303Z,53.44
2016-09-10T06:03:00.551Z,53.05
2016-09-10T06:03:32.964Z,53.25
2016-09-10T06:04:05.427Z,53.05
2016-09-10T06:04:37.777Z,53.15
2016-09-10T06:05:10.147Z,53.15
2016-09-10T06:05:42.489Z,53.15
2016-09-10T06:06:14.892Z,53.25
2016-09-10T06:06:47.444Z,53.53
2016-09-10T06:07:19.765Z,53.53
2016-09-10T06:07:52.089Z,53.05
2016-09-10T06:08:24.423Z,53.44
2016-09-10T06:08:56.764Z,53.53
2016-09-10T06:09:29.115Z,53.25
2016-09-10T06:10:01.464Z,53.05
2016-09-10T06:10:35.171Z,53.25
2016-09-10T06:11:07.527Z,53.15
2016-09-10T06:11:39.874Z,53.15
2016-09-10T06:12:12.199Z,53.25
2016-09-10T06:12:44.553Z,53.05
2016-09-10T06:13:16.881Z,53.15
2016-09-10T06:13:49.265Z,53.15
2016-09-10T06:14:21.588Z,52.86
2016-09-10T06:14:53.925Z,53.05
2016-09-10T06:15:26.239Z,53.05
2016-09-10T06:15:58.559Z,53.15
2016-09-10T06:16:30.939Z,52.95
2016-09-10T06:17:03.843Z,52.95
2016-09-10T06:17:36.302Z,52.98
2016-09-10T06:18:08.617Z,53.25
2016-09-10T06:18:40.965Z,53.17
2016-09-10T06:19:13.456Z,53.08
2016-09-10T06:19:45.785Z,53.08
2016-09-10T06:20:18.117Z,52.98
2016-09-10T06:20:50.476Z,53.17
2016-09-10T06:21:22.813Z,53.27
2016-09-10T06:21:55.145Z,53.17
2016-09-10T06:22:27.530Z,52.89
2016-09-10T06:22:59.848Z,53.08
2016-09-10T06:23:32.267Z,53.27
2016-09-10T06:24:04.587Z,52.89
2016-09-10T06:24:36.906Z,53.47
2016-09-10T06:25:09.230Z,52.89
2016-09-10T06:25:41.688Z,52.79
2016-09-10T06:26:14.022Z,52.89
2016-09-10T06:26:46.326Z,52.69
2016-09-10T06:27:18.876Z,52.79
2016-09-10T06:27:51.225Z,53.17
2016-09-10T06:28:23.572Z,52.89
2016-09-10T06:28:55.865Z,53.08
2016-09-10T06:29:28.244Z,52.79
2016-09-10T06:30:00.593Z,52.69
2016-09-10T06:30:34.356Z,52.69
2016-09-10T06:31:06.701Z,52.89
2016-09-10T06:31:39.011Z,52.98
2016-09-10T06:32:11.458Z,52.79
2016-09-10T06:32:43.862Z,52.5
2016-09-10T06:33:16.344Z,52.69
2016-09-10T06:33:48.668Z,52.89
2016-09-10T06:34:21.006Z,52.59
2016-09-10T06:34:53.335Z,52.98
2016-09-10T06:35:25.695Z,52.5
2016-09-10T06:35:58.063Z,52.5
2016-09-10T06:36:30.430Z,52.5
2016-09-10T06:37:02.778Z,52.59
2016-09-10T06:37:35.105Z,52.98
2016-09-10T06:38:07.606Z,52.59
2016-09-10T06:38:39.972Z,52.69
2016-09-10T06:39:12.318Z,52.62
2016-09-10T06:39:44.652Z,52.91
2016-09-10T06:40:17.204Z,52.72
2016-09-10T06:40:49.574Z,52.81
2016-09-10T06:41:21.925Z,52.81
2016-09-10T06:41:54.267Z,52.72
2016-09-10T06:42:26.613Z,52.81
2016-09-10T06:42:59.079Z,52.81
2016-09-10T06:43:31.426Z,52.91
2016-09-10T06:44:03.801Z,52.72
2016-09-10T06:44:36.192Z,52.81
2016-09-10T06:45:08.514Z,52.62
2016-09-10T06:45:40.869Z,52.43
2016-09-10T06:46:13.198Z,52.62
2016-09-10T06:46:45.547Z,52.62
2016-09-10T06:47:17.869Z,52.43
2016-09-10T06:47:50.212Z,52.53
2016-09-10T06:48:22.516Z,52.81
2016-09-10T06:48:54.927Z,52.72
2016-09-10T06:49:27.224Z,53.11
2016-09-10T06:49:59.533Z,52.62
2016-09-10T06:50:32.030Z,52.72
2016-09-10T06:51:04.423Z,52.81
2016-09-10T06:51:36.912Z,52.81
2016-09-10T06:52:09.248Z,52.23
2016-09-10T06:52:41.569Z,52.43
2016-09-10T06:53:14.126Z,52.33
2016-09-10T06:53:46.473Z,52.36
2016-09-10T06:54:18.913Z,52.45
2016-09-10T06:54:51.291Z,52.65
2016-09-10T06:55:23.703Z,52.65
2016-09-10T06:56:22.437Z,52.84
2016-09-10T06:56:54.830Z,52.75
2016-09-10T06:57:27.137Z,52.26
2016-09-10T06:57:59.563Z,52.65
2016-09-10T06:58:31.974Z,52.45